sensor_id;sensor_type;location;lat;lon;timestamp;temperature;humidity
59282;DHT22;45054;52.062;10.010;2022-10-01T00:01:17;9.40;99.90
59282;DHT22;45054;52.062;10.010;2022-10-01T00:03:43;9.40;99.90
59282;DHT22;45054;52.062;10.010;2022-10-01T00:06:09;9.40;99.90
59282;DHT22;45054;52.062;10.010;2022-10-01T00:08:35;9.40;99.90
59282;DHT22;45054;52.062;10.010;2022-10-01T00:11:05;9.50;99.90
59282;DHT22;45054;52.062;10.010;2022-10-01T00:13:31;9.50;99.90
59282;DHT22;45054;52.062;10.010;2022-10-01T00:15:56;9.50;99.90
59282;DHT22;45054;52.062;10.010;2022-10-01T00:18:22;9.60;99.90
59282;DHT22;45054;52.062;10.010;2022-10-01T00:20:47;9.60;99.90
59282;DHT22;45054;52.062;10.010;2022-10-01T00:23:13;9.60;99.90
59282;DHT22;45054;52.062;10.010;2022-10-01T00:25:38;9.50;99.90
59282;DHT22;45054;52.062;10.010;2022-10-01T00:28:05;9.50;99.90
59282;DHT22;45054;52.062;10.010;2022-10-01T00:30:31;9.50;99.90
59282;DHT22;45054;52.062;10.010;2022-10-01T00:32:56;9.50;99.90
59282;DHT22;45054;52.062;10.010;2022-10-01T00:35:22;9.50;99.90
59282;DHT22;45054;52.062;10.010;2022-10-01T00:37:47;9.60;99.90
59282;DHT22;45054;52.062;10.010;2022-10-01T00:40:13;9.60;99.90
59282;DHT22;45054;52.062;10.010;2022-10-01T00:42:38;9.70;99.90
59282;DHT22;45054;52.062;10.010;2022-10-01T00:45:05;9.80;99.90
59282;DHT22;45054;52.062;10.010;2022-10-01T00:47:32;9.80;99.90
59282;DHT22;45054;52.062;10.010;2022-10-01T00:49:59;9.80;99.90
59282;DHT22;45054;52.062;10.010;2022-10-01T00:52:27;9.80;99.90
59282;DHT22;45054;52.062;10.010;2022-10-01T00:54:56;9.80;99.90
59282;DHT22;45054;52.062;10.010;2022-10-01T00:57:22;9.80;99.90
59282;DHT22;45054;52.062;10.010;2022-10-01T00:59:49;9.80;99.90
59282;DHT22;45054;52.062;10.010;2022-10-01T01:02:17;9.80;99.90
59282;DHT22;45054;52.062;10.010;2022-10-01T01:04:42;9.80;99.90
59282;DHT22;45054;52.062;10.010;2022-10-01T01:07:08;9.80;99.90
59282;DHT22;45054;52.062;10.010;2022-10-01T01:09:34;9.80;99.90
59282;DHT22;45054;52.062;10.010;2022-10-01T01:12:02;9.80;99.90
59282;DHT22;45054;52.062;10.010;2022-10-01T01:14:32;9.70;99.90
59282;DHT22;45054;52.062;10.010;2022-10-01T01:17:00;9.80;99.90
59282;DHT22;45054;52.062;10.010;2022-10-01T01:19:32;9.80;99.90
59282;DHT22;45054;52.062;10.010;2022-10-01T01:22:03;9.90;99.90
59282;DHT22;45054;52.062;10.010;2022-10-01T01:24:39;9.90;99.90
59282;DHT22;45054;52.062;10.010;2022-10-01T01:27:11;9.90;99.90
59282;DHT22;45054;52.062;10.010;2022-10-01T01:29:41;9.90;99.90
59282;DHT22;45054;52.062;10.010;2022-10-01T01:32:09;9.90;99.90
59282;DHT22;45054;52.062;10.010;2022-10-01T01:34:36;9.90;99.90
59282;DHT22;45054;52.062;10.010;2022-10-01T01:37:04;9.90;99.90
59282;DHT22;45054;52.062;10.010;2022-10-01T01:39:31;9.90;99.90
59282;DHT22;45054;52.062;10.010;2022-10-01T01:41:58;9.90;99.90
59282;DHT22;45054;52.062;10.010;2022-10-01T01:44:25;9.80;99.90
59282;DHT22;45054;52.062;10.010;2022-10-01T01:46:53;9.90;99.90
59282;DHT22;45054;52.062;10.010;2022-10-01T01:49:19;10.00;99.90
59282;DHT22;45054;52.062;10.010;2022-10-01T01:51:46;10.00;99.90
59282;DHT22;45054;52.062;10.010;2022-10-01T01:54:13;10.00;99.90
59282;DHT22;45054;52.062;10.010;2022-10-01T01:56:38;10.00;99.90
59282;DHT22;45054;52.062;10.010;2022-10-01T01:59:04;10.00;99.90
59282;DHT22;45054;52.062;10.010;2022-10-01T02:01:30;10.00;99.90
59282;DHT22;45054;52.062;10.010;2022-10-01T02:03:57;10.00;99.90
59282;DHT22;45054;52.062;10.010;2022-10-01T02:06:24;10.10;99.90
59282;DHT22;45054;52.062;10.010;2022-10-01T02:08:53;10.10;99.90
59282;DHT22;45054;52.062;10.010;2022-10-01T02:11:22;10.10;99.90
59282;DHT22;45054;52.062;10.010;2022-10-01T02:13:49;10.10;99.90
59282;DHT22;45054;52.062;10.010;2022-10-01T02:16:22;10.10;99.90
59282;DHT22;45054;52.062;10.010;2022-10-01T02:18:50;10.10;99.90
59282;DHT22;45054;52.062;10.010;2022-10-01T02:21:19;10.10;99.90
59282;DHT22;45054;52.062;10.010;2022-10-01T02:23:47;10.10;99.90
59282;DHT22;45054;52.062;10.010;2022-10-01T02:26:14;10.00;99.90
59282;DHT22;45054;52.062;10.010;2022-10-01T02:28:40;10.10;99.90
59282;DHT22;45054;52.062;10.010;2022-10-01T02:31:06;10.10;99.90
59282;DHT22;45054;52.062;10.010;2022-10-01T02:33:33;10.20;99.90
59282;DHT22;45054;52.062;10.010;2022-10-01T02:35:59;10.10;99.90
59282;DHT22;45054;52.062;10.010;2022-10-01T02:38:27;10.10;99.90
59282;DHT22;45054;52.062;10.010;2022-10-01T02:40:54;10.10;99.90
59282;DHT22;45054;52.062;10.010;2022-10-01T02:43:21;10.10;99.90
59282;DHT22;45054;52.062;10.010;2022-10-01T02:45:50;10.10;99.90
59282;DHT22;45054;52.062;10.010;2022-10-01T02:48:18;10.20;99.90
59282;DHT22;45054;52.062;10.010;2022-10-01T02:50:45;10.20;99.90
59282;DHT22;45054;52.062;10.010;2022-10-01T02:53:14;10.30;99.90
59282;DHT22;45054;52.062;10.010;2022-10-01T02:55:42;10.30;99.90
59282;DHT22;45054;52.062;10.010;2022-10-01T02:58:09;10.30;99.90
59282;DHT22;45054;52.062;10.010;2022-10-01T03:00:34;10.30;99.90
59282;DHT22;45054;52.062;10.010;2022-10-01T03:02:59;10.30;99.90
59282;DHT22;45054;52.062;10.010;2022-10-01T03:05:25;10.30;99.90
59282;DHT22;45054;52.062;10.010;2022-10-01T03:07:51;10.30;99.90
59282;DHT22;45054;52.062;10.010;2022-10-01T03:10:16;10.40;99.90
59282;DHT22;45054;52.062;10.010;2022-10-01T03:12:43;10.30;99.90
59282;DHT22;45054;52.062;10.010;2022-10-01T03:15:09;10.40;99.90
59282;DHT22;45054;52.062;10.010;2022-10-01T03:17:34;10.40;99.90
59282;DHT22;45054;52.062;10.010;2022-10-01T03:20:00;10.40;99.90
59282;DHT22;45054;52.062;10.010;2022-10-01T03:22:25;10.40;99.90
59282;DHT22;45054;52.062;10.010;2022-10-01T03:24:51;10.40;99.90
59282;DHT22;45054;52.062;10.010;2022-10-01T03:27:17;10.40;99.90
59282;DHT22;45054;52.062;10.010;2022-10-01T03:29:44;10.40;99.90
59282;DHT22;45054;52.062;10.010;2022-10-01T03:32:09;10.40;99.90
59282;DHT22;45054;52.062;10.010;2022-10-01T03:34:35;10.40;99.90
59282;DHT22;45054;52.062;10.010;2022-10-01T03:37:00;10.40;99.90
59282;DHT22;45054;52.062;10.010;2022-10-01T03:39:26;10.40;99.90
59282;DHT22;45054;52.062;10.010;2022-10-01T03:41:51;10.50;99.90
59282;DHT22;45054;52.062;10.010;2022-10-01T03:44:17;10.50;99.90
59282;DHT22;45054;52.062;10.010;2022-10-01T03:46:44;10.50;99.90
59282;DHT22;45054;52.062;10.010;2022-10-01T03:49:09;10.50;99.90
59282;DHT22;45054;52.062;10.010;2022-10-01T03:51:35;10.60;99.90
59282;DHT22;45054;52.062;10.010;2022-10-01T03:54:00;10.60;99.90
59282;DHT22;45054;52.062;10.010;2022-10-01T03:56:26;10.60;99.90
59282;DHT22;45054;52.062;10.010;2022-10-01T03:58:52;10.60;99.90
59282;DHT22;45054;52.062;10.010;2022-10-01T04:01:17;10.60;99.90
59282;DHT22;45054;52.062;10.010;2022-10-01T04:03:44;10.60;99.90
59282;DHT22;45054;52.062;10.010;2022-10-01T04:06:10;10.70;99.90
59282;DHT22;45054;52.062;10.010;2022-10-01T04:08:35;10.70;99.90
59282;DHT22;45054;52.062;10.010;2022-10-01T04:11:01;10.70;99.90
59282;DHT22;45054;52.062;10.010;2022-10-01T04:13:26;10.70;99.90
59282;DHT22;45054;52.062;10.010;2022-10-01T04:15:52;10.70;99.90
59282;DHT22;45054;52.062;10.010;2022-10-01T04:18:17;10.70;99.90
59282;DHT22;45054;52.062;10.010;2022-10-01T04:20:44;10.70;99.90
59282;DHT22;45054;52.062;10.010;2022-10-01T04:23:10;10.70;99.90
59282;DHT22;45054;52.062;10.010;2022-10-01T04:25:35;10.70;99.90
59282;DHT22;45054;52.062;10.010;2022-10-01T04:28:01;10.70;99.90
59282;DHT22;45054;52.062;10.010;2022-10-01T04:30:27;10.70;99.90
59282;DHT22;45054;52.062;10.010;2022-10-01T04:32:53;10.70;99.90
59282;DHT22;45054;52.062;10.010;2022-10-01T04:35:19;10.60;99.90
59282;DHT22;45054;52.062;10.010;2022-10-01T04:37:45;10.60;99.90
59282;DHT22;45054;52.062;10.010;2022-10-01T04:40:11;10.60;99.90
59282;DHT22;45054;52.062;10.010;2022-10-01T04:42:37;10.60;99.90
59282;DHT22;45054;52.062;10.010;2022-10-01T04:45:03;10.60;99.90
59282;DHT22;45054;52.062;10.010;2022-10-01T04:47:28;10.60;99.90
59282;DHT22;45054;52.062;10.010;2022-10-01T04:49:54;10.60;99.90
59282;DHT22;45054;52.062;10.010;2022-10-01T04:52:19;10.50;99.90
59282;DHT22;45054;52.062;10.010;2022-10-01T04:54:46;10.50;99.90
59282;DHT22;45054;52.062;10.010;2022-10-01T04:57:11;10.40;99.90
59282;DHT22;45054;52.062;10.010;2022-10-01T04:59:37;10.30;99.90
59282;DHT22;45054;52.062;10.010;2022-10-01T05:02:02;10.30;99.90
59282;DHT22;45054;52.062;10.010;2022-10-01T05:04:28;10.20;99.90
59282;DHT22;45054;52.062;10.010;2022-10-01T05:06:53;10.20;99.90
59282;DHT22;45054;52.062;10.010;2022-10-01T05:09:19;10.20;99.90
59282;DHT22;45054;52.062;10.010;2022-10-01T05:11:46;10.20;99.90
59282;DHT22;45054;52.062;10.010;2022-10-01T05:14:11;10.20;99.90
59282;DHT22;45054;52.062;10.010;2022-10-01T05:16:36;10.10;99.90
59282;DHT22;45054;52.062;10.010;2022-10-01T05:19:02;10.10;99.90
59282;DHT22;45054;52.062;10.010;2022-10-01T05:21:27;10.10;99.90
59282;DHT22;45054;52.062;10.010;2022-10-01T05:23:53;10.10;99.90
59282;DHT22;45054;52.062;10.010;2022-10-01T05:26:18;10.00;99.90
59282;DHT22;45054;52.062;10.010;2022-10-01T05:28:45;10.10;99.90
59282;DHT22;45054;52.062;10.010;2022-10-01T05:31:11;10.00;99.90
59282;DHT22;45054;52.062;10.010;2022-10-01T05:33:38;9.90;99.90
59282;DHT22;45054;52.062;10.010;2022-10-01T05:36:04;9.90;99.90
59282;DHT22;45054;52.062;10.010;2022-10-01T05:38:30;9.90;99.90
59282;DHT22;45054;52.062;10.010;2022-10-01T05:40:56;9.90;99.90
59282;DHT22;45054;52.062;10.010;2022-10-01T05:43:21;9.90;99.90
59282;DHT22;45054;52.062;10.010;2022-10-01T05:45:48;9.80;99.90
59282;DHT22;45054;52.062;10.010;2022-10-01T05:48:14;9.80;99.90
59282;DHT22;45054;52.062;10.010;2022-10-01T05:50:39;9.80;99.90
59282;DHT22;45054;52.062;10.010;2022-10-01T05:53:05;9.80;99.90
59282;DHT22;45054;52.062;10.010;2022-10-01T05:55:31;9.70;99.90
59282;DHT22;45054;52.062;10.010;2022-10-01T05:57:57;9.70;99.90
59282;DHT22;45054;52.062;10.010;2022-10-01T06:00:23;9.70;99.90
59282;DHT22;45054;52.062;10.010;2022-10-01T06:02:50;9.70;99.90
59282;DHT22;45054;52.062;10.010;2022-10-01T06:05:16;9.70;99.90
59282;DHT22;45054;52.062;10.010;2022-10-01T06:07:41;9.70;99.90
59282;DHT22;45054;52.062;10.010;2022-10-01T06:10:07;9.70;99.90
59282;DHT22;45054;52.062;10.010;2022-10-01T06:12:33;9.70;99.90
59282;DHT22;45054;52.062;10.010;2022-10-01T06:14:58;9.70;99.90
59282;DHT22;45054;52.062;10.010;2022-10-01T06:17:24;9.70;99.90
59282;DHT22;45054;52.062;10.010;2022-10-01T06:19:50;9.70;99.90
59282;DHT22;45054;52.062;10.010;2022-10-01T06:22:16;9.60;99.90
59282;DHT22;45054;52.062;10.010;2022-10-01T06:24:41;9.60;99.90
59282;DHT22;45054;52.062;10.010;2022-10-01T06:27:07;9.60;99.90
59282;DHT22;45054;52.062;10.010;2022-10-01T06:29:32;9.60;99.90
59282;DHT22;45054;52.062;10.010;2022-10-01T06:31:58;9.70;99.90
59282;DHT22;45054;52.062;10.010;2022-10-01T06:34:23;9.60;99.90
59282;DHT22;45054;52.062;10.010;2022-10-01T06:36:50;9.70;99.90
59282;DHT22;45054;52.062;10.010;2022-10-01T06:39:15;9.60;99.90
59282;DHT22;45054;52.062;10.010;2022-10-01T06:41:41;9.60;99.90
59282;DHT22;45054;52.062;10.010;2022-10-01T06:44:06;9.60;99.90
59282;DHT22;45054;52.062;10.010;2022-10-01T06:46:32;9.60;99.90
59282;DHT22;45054;52.062;10.010;2022-10-01T06:48:57;9.70;99.90
59282;DHT22;45054;52.062;10.010;2022-10-01T06:51:23;9.70;99.90
59282;DHT22;45054;52.062;10.010;2022-10-01T06:53:50;9.70;99.90
59282;DHT22;45054;52.062;10.010;2022-10-01T06:56:15;9.70;99.90
59282;DHT22;45054;52.062;10.010;2022-10-01T06:58:41;9.70;99.90
59282;DHT22;45054;52.062;10.010;2022-10-01T07:01:06;9.70;99.90
59282;DHT22;45054;52.062;10.010;2022-10-01T07:03:31;9.60;99.90
59282;DHT22;45054;52.062;10.010;2022-10-01T07:06:00;9.70;99.90
59282;DHT22;45054;52.062;10.010;2022-10-01T07:08:26;9.60;99.90
59282;DHT22;45054;52.062;10.010;2022-10-01T07:10:53;9.70;99.90
59282;DHT22;45054;52.062;10.010;2022-10-01T07:13:22;9.70;99.90
59282;DHT22;45054;52.062;10.010;2022-10-01T07:15:48;9.70;99.90
59282;DHT22;45054;52.062;10.010;2022-10-01T07:18:13;9.70;99.90
59282;DHT22;45054;52.062;10.010;2022-10-01T07:20:39;9.70;99.90
59282;DHT22;45054;52.062;10.010;2022-10-01T07:23:05;9.70;99.90
59282;DHT22;45054;52.062;10.010;2022-10-01T07:25:31;9.70;99.90
59282;DHT22;45054;52.062;10.010;2022-10-01T07:27:58;9.70;99.90
59282;DHT22;45054;52.062;10.010;2022-10-01T07:30:24;9.70;99.90
59282;DHT22;45054;52.062;10.010;2022-10-01T07:32:50;9.70;99.90
59282;DHT22;45054;52.062;10.010;2022-10-01T07:35:15;9.70;99.90
59282;DHT22;45054;52.062;10.010;2022-10-01T07:37:41;9.70;99.90
59282;DHT22;45054;52.062;10.010;2022-10-01T07:40:07;9.70;99.90
59282;DHT22;45054;52.062;10.010;2022-10-01T07:42:32;9.70;99.90
59282;DHT22;45054;52.062;10.010;2022-10-01T07:44:59;9.70;99.90
59282;DHT22;45054;52.062;10.010;2022-10-01T07:47:25;9.70;99.90
59282;DHT22;45054;52.062;10.010;2022-10-01T07:49:50;9.70;99.90
59282;DHT22;45054;52.062;10.010;2022-10-01T07:52:16;9.70;99.90
59282;DHT22;45054;52.062;10.010;2022-10-01T07:54:41;9.70;99.90
59282;DHT22;45054;52.062;10.010;2022-10-01T07:57:06;9.70;99.90
59282;DHT22;45054;52.062;10.010;2022-10-01T07:59:32;9.70;99.90
59282;DHT22;45054;52.062;10.010;2022-10-01T08:01:59;9.80;99.90
59282;DHT22;45054;52.062;10.010;2022-10-01T08:04:24;9.80;99.90
59282;DHT22;45054;52.062;10.010;2022-10-01T08:06:50;9.80;99.90
59282;DHT22;45054;52.062;10.010;2022-10-01T08:09:15;9.80;99.90
59282;DHT22;45054;52.062;10.010;2022-10-01T08:11:41;9.80;99.90
59282;DHT22;45054;52.062;10.010;2022-10-01T08:14:06;9.80;99.90
59282;DHT22;45054;52.062;10.010;2022-10-01T08:16:32;9.80;99.90
59282;DHT22;45054;52.062;10.010;2022-10-01T08:18:59;9.90;99.90
59282;DHT22;45054;52.062;10.010;2022-10-01T08:21:25;9.90;99.90
59282;DHT22;45054;52.062;10.010;2022-10-01T08:23:52;9.90;99.90
59282;DHT22;45054;52.062;10.010;2022-10-01T08:26:17;9.90;99.90
59282;DHT22;45054;52.062;10.010;2022-10-01T08:28:43;9.90;99.90
59282;DHT22;45054;52.062;10.010;2022-10-01T08:31:08;9.90;99.90
59282;DHT22;45054;52.062;10.010;2022-10-01T08:33:34;10.00;99.90
59282;DHT22;45054;52.062;10.010;2022-10-01T08:36:01;10.00;99.90
59282;DHT22;45054;52.062;10.010;2022-10-01T08:38:26;10.00;99.90
59282;DHT22;45054;52.062;10.010;2022-10-01T08:40:52;10.00;99.90
59282;DHT22;45054;52.062;10.010;2022-10-01T08:46:02;10.10;99.90
59282;DHT22;45054;52.062;10.010;2022-10-01T08:48:35;10.10;99.90
59282;DHT22;45054;52.062;10.010;2022-10-01T08:51:04;10.10;99.90
59282;DHT22;45054;52.062;10.010;2022-10-01T08:53:33;10.10;99.90
59282;DHT22;45054;52.062;10.010;2022-10-01T08:56:00;10.10;99.90
59282;DHT22;45054;52.062;10.010;2022-10-01T08:58:27;10.20;99.90
59282;DHT22;45054;52.062;10.010;2022-10-01T09:00:55;10.20;99.90
59282;DHT22;45054;52.062;10.010;2022-10-01T09:03:20;10.30;99.90
59282;DHT22;45054;52.062;10.010;2022-10-01T09:05:49;10.30;99.90
59282;DHT22;45054;52.062;10.010;2022-10-01T09:08:21;10.30;99.90
59282;DHT22;45054;52.062;10.010;2022-10-01T09:10:48;10.30;99.90
59282;DHT22;45054;52.062;10.010;2022-10-01T09:16:01;10.30;99.90
59282;DHT22;45054;52.062;10.010;2022-10-01T09:18:32;10.30;99.90
59282;DHT22;45054;52.062;10.010;2022-10-01T09:21:01;10.30;99.90
59282;DHT22;45054;52.062;10.010;2022-10-01T09:23:34;10.30;99.90
59282;DHT22;45054;52.062;10.010;2022-10-01T09:26:03;10.30;99.90
59282;DHT22;45054;52.062;10.010;2022-10-01T09:28:30;10.40;99.90
59282;DHT22;45054;52.062;10.010;2022-10-01T09:30:57;10.40;99.90
59282;DHT22;45054;52.062;10.010;2022-10-01T09:33:24;10.40;99.90
59282;DHT22;45054;52.062;10.010;2022-10-01T09:35:54;10.40;99.90
59282;DHT22;45054;52.062;10.010;2022-10-01T09:38:22;10.50;99.90
59282;DHT22;45054;52.062;10.010;2022-10-01T09:40:51;10.50;99.90
59282;DHT22;45054;52.062;10.010;2022-10-01T09:43:17;10.60;99.90
59282;DHT22;45054;52.062;10.010;2022-10-01T09:45:43;10.60;99.90
59282;DHT22;45054;52.062;10.010;2022-10-01T09:48:13;10.60;99.90
59282;DHT22;45054;52.062;10.010;2022-10-01T09:50:42;10.70;99.90
59282;DHT22;45054;52.062;10.010;2022-10-01T09:53:09;10.70;99.90
59282;DHT22;45054;52.062;10.010;2022-10-01T09:55:38;10.70;99.90
59282;DHT22;45054;52.062;10.010;2022-10-01T09:58:07;10.70;99.90
59282;DHT22;45054;52.062;10.010;2022-10-01T10:00:34;10.70;99.90
59282;DHT22;45054;52.062;10.010;2022-10-01T10:03:00;10.70;99.90
59282;DHT22;45054;52.062;10.010;2022-10-01T10:05:26;10.70;99.90
59282;DHT22;45054;52.062;10.010;2022-10-01T10:07:52;10.70;99.90
59282;DHT22;45054;52.062;10.010;2022-10-01T10:10:19;10.70;99.90
59282;DHT22;45054;52.062;10.010;2022-10-01T10:12:45;10.70;99.90
59282;DHT22;45054;52.062;10.010;2022-10-01T10:15:15;10.80;99.90
59282;DHT22;45054;52.062;10.010;2022-10-01T10:17:41;10.80;99.90
59282;DHT22;45054;52.062;10.010;2022-10-01T10:20:07;10.80;99.90
59282;DHT22;45054;52.062;10.010;2022-10-01T10:22:34;10.80;99.90
59282;DHT22;45054;52.062;10.010;2022-10-01T10:25:09;10.80;99.90
59282;DHT22;45054;52.062;10.010;2022-10-01T10:27:34;10.80;99.90
59282;DHT22;45054;52.062;10.010;2022-10-01T10:30:00;10.90;99.90
59282;DHT22;45054;52.062;10.010;2022-10-01T10:32:27;10.80;99.90
59282;DHT22;45054;52.062;10.010;2022-10-01T10:34:54;10.90;99.90
59282;DHT22;45054;52.062;10.010;2022-10-01T10:37:21;10.90;99.90
59282;DHT22;45054;52.062;10.010;2022-10-01T10:39:47;11.00;99.90
59282;DHT22;45054;52.062;10.010;2022-10-01T10:42:14;11.00;99.90
59282;DHT22;45054;52.062;10.010;2022-10-01T10:44:40;11.10;99.90
59282;DHT22;45054;52.062;10.010;2022-10-01T10:47:07;11.20;99.90
59282;DHT22;45054;52.062;10.010;2022-10-01T10:49:36;11.20;99.90
59282;DHT22;45054;52.062;10.010;2022-10-01T10:52:15;11.30;99.90
59282;DHT22;45054;52.062;10.010;2022-10-01T10:54:44;11.30;99.90
59282;DHT22;45054;52.062;10.010;2022-10-01T10:57:15;11.40;99.90
59282;DHT22;45054;52.062;10.010;2022-10-01T10:59:41;11.40;99.90
59282;DHT22;45054;52.062;10.010;2022-10-01T11:02:18;11.40;99.90
59282;DHT22;45054;52.062;10.010;2022-10-01T11:04:46;11.40;99.90
59282;DHT22;45054;52.062;10.010;2022-10-01T11:07:11;11.40;99.90
59282;DHT22;45054;52.062;10.010;2022-10-01T11:09:46;11.40;99.90
59282;DHT22;45054;52.062;10.010;2022-10-01T11:12:17;11.50;99.90
59282;DHT22;45054;52.062;10.010;2022-10-01T11:14:49;11.50;99.90
59282;DHT22;45054;52.062;10.010;2022-10-01T11:17:24;11.60;99.90
59282;DHT22;45054;52.062;10.010;2022-10-01T11:22:45;11.60;99.90
59282;DHT22;45054;52.062;10.010;2022-10-01T11:25:18;11.70;99.90
59282;DHT22;45054;52.062;10.010;2022-10-01T11:27:48;11.70;99.90
59282;DHT22;45054;52.062;10.010;2022-10-01T11:30:18;11.70;99.90
59282;DHT22;45054;52.062;10.010;2022-10-01T11:32:44;11.80;99.90
59282;DHT22;45054;52.062;10.010;2022-10-01T11:35:15;11.80;99.90
59282;DHT22;45054;52.062;10.010;2022-10-01T11:37:47;11.90;99.90
59282;DHT22;45054;52.062;10.010;2022-10-01T11:40:16;11.90;99.90
59282;DHT22;45054;52.062;10.010;2022-10-01T11:42:45;12.00;99.90
59282;DHT22;45054;52.062;10.010;2022-10-01T11:45:13;12.00;99.90
59282;DHT22;45054;52.062;10.010;2022-10-01T11:47:40;12.20;99.90
59282;DHT22;45054;52.062;10.010;2022-10-01T11:50:07;12.20;99.90
59282;DHT22;45054;52.062;10.010;2022-10-01T11:52:39;12.20;99.90
59282;DHT22;45054;52.062;10.010;2022-10-01T11:55:15;12.30;99.90
59282;DHT22;45054;52.062;10.010;2022-10-01T11:57:41;12.40;99.90
59282;DHT22;45054;52.062;10.010;2022-10-01T12:00:08;12.50;99.90
59282;DHT22;45054;52.062;10.010;2022-10-01T12:02:34;12.50;99.90
59282;DHT22;45054;52.062;10.010;2022-10-01T12:05:04;12.60;99.90
59282;DHT22;45054;52.062;10.010;2022-10-01T12:07:32;12.60;99.90
59282;DHT22;45054;52.062;10.010;2022-10-01T12:09:59;12.60;99.90
59282;DHT22;45054;52.062;10.010;2022-10-01T12:12:28;12.60;99.90
59282;DHT22;45054;52.062;10.010;2022-10-01T12:14:55;12.70;99.90
59282;DHT22;45054;52.062;10.010;2022-10-01T12:17:24;12.60;99.90
59282;DHT22;45054;52.062;10.010;2022-10-01T12:19:50;12.70;99.90
59282;DHT22;45054;52.062;10.010;2022-10-01T12:22:19;12.70;99.90
59282;DHT22;45054;52.062;10.010;2022-10-01T12:24:47;12.80;99.90
59282;DHT22;45054;52.062;10.010;2022-10-01T12:27:33;12.90;99.90
59282;DHT22;45054;52.062;10.010;2022-10-01T12:30:02;12.90;99.90
59282;DHT22;45054;52.062;10.010;2022-10-01T12:32:31;13.00;99.90
59282;DHT22;45054;52.062;10.010;2022-10-01T12:35:01;13.00;99.90
59282;DHT22;45054;52.062;10.010;2022-10-01T12:37:32;13.20;99.90
59282;DHT22;45054;52.062;10.010;2022-10-01T12:40:15;13.20;99.90
59282;DHT22;45054;52.062;10.010;2022-10-01T12:42:48;13.40;99.90
59282;DHT22;45054;52.062;10.010;2022-10-01T12:45:22;13.40;99.90
59282;DHT22;45054;52.062;10.010;2022-10-01T12:47:52;13.40;99.90
59282;DHT22;45054;52.062;10.010;2022-10-01T12:50:21;13.50;99.90
59282;DHT22;45054;52.062;10.010;2022-10-01T12:52:51;13.70;99.90
59282;DHT22;45054;52.062;10.010;2022-10-01T12:55:24;13.80;99.90
59282;DHT22;45054;52.062;10.010;2022-10-01T12:57:52;13.90;99.90
59282;DHT22;45054;52.062;10.010;2022-10-01T13:00:21;14.00;99.90
59282;DHT22;45054;52.062;10.010;2022-10-01T13:02:54;14.00;99.90
59282;DHT22;45054;52.062;10.010;2022-10-01T13:05:25;14.30;99.90
59282;DHT22;45054;52.062;10.010;2022-10-01T13:07:55;14.50;99.90
59282;DHT22;45054;52.062;10.010;2022-10-01T13:10:29;14.60;99.90
59282;DHT22;45054;52.062;10.010;2022-10-01T13:12:59;14.50;99.90
59282;DHT22;45054;52.062;10.010;2022-10-01T13:15:27;14.50;99.90
59282;DHT22;45054;52.062;10.010;2022-10-01T13:17:54;14.50;99.90
59282;DHT22;45054;52.062;10.010;2022-10-01T13:20:22;14.50;99.90
59282;DHT22;45054;52.062;10.010;2022-10-01T13:22:52;14.50;99.90
59282;DHT22;45054;52.062;10.010;2022-10-01T13:25:23;14.50;99.90
59282;DHT22;45054;52.062;10.010;2022-10-01T13:27:53;14.50;99.90
59282;DHT22;45054;52.062;10.010;2022-10-01T13:30:20;14.40;99.90
59282;DHT22;45054;52.062;10.010;2022-10-01T13:32:51;14.40;99.90
59282;DHT22;45054;52.062;10.010;2022-10-01T13:35:21;14.50;99.90
59282;DHT22;45054;52.062;10.010;2022-10-01T13:37:47;14.50;99.90
59282;DHT22;45054;52.062;10.010;2022-10-01T13:42:57;14.50;99.90
59282;DHT22;45054;52.062;10.010;2022-10-01T13:45:27;14.50;99.90
59282;DHT22;45054;52.062;10.010;2022-10-01T13:48:04;14.50;99.90
59282;DHT22;45054;52.062;10.010;2022-10-01T13:50:30;14.60;99.90
59282;DHT22;45054;52.062;10.010;2022-10-01T13:53:02;14.80;99.90
59282;DHT22;45054;52.062;10.010;2022-10-01T13:55:29;15.00;99.90
59282;DHT22;45054;52.062;10.010;2022-10-01T13:58:01;15.30;99.90
59282;DHT22;45054;52.062;10.010;2022-10-01T14:00:27;15.80;99.90
59282;DHT22;45054;52.062;10.010;2022-10-01T14:03:00;16.10;99.90
59282;DHT22;45054;52.062;10.010;2022-10-01T14:05:28;16.20;99.90
59282;DHT22;45054;52.062;10.010;2022-10-01T14:07:55;16.20;99.90
59282;DHT22;45054;52.062;10.010;2022-10-01T14:10:23;15.90;99.90
59282;DHT22;45054;52.062;10.010;2022-10-01T14:12:54;15.90;99.90
59282;DHT22;45054;52.062;10.010;2022-10-01T14:15:21;15.90;99.90
59282;DHT22;45054;52.062;10.010;2022-10-01T14:17:48;16.00;99.90
59282;DHT22;45054;52.062;10.010;2022-10-01T14:20:18;16.20;99.90
59282;DHT22;45054;52.062;10.010;2022-10-01T14:22:48;16.30;99.90
59282;DHT22;45054;52.062;10.010;2022-10-01T14:25:19;16.60;99.90
59282;DHT22;45054;52.062;10.010;2022-10-01T14:27:48;16.90;99.90
59282;DHT22;45054;52.062;10.010;2022-10-01T14:30:18;16.90;99.90
59282;DHT22;45054;52.062;10.010;2022-10-01T14:32:50;16.80;99.90
59282;DHT22;45054;52.062;10.010;2022-10-01T14:35:24;16.50;99.90
59282;DHT22;45054;52.062;10.010;2022-10-01T14:37:56;16.30;99.90
59282;DHT22;45054;52.062;10.010;2022-10-01T14:40:23;16.00;99.90
59282;DHT22;45054;52.062;10.010;2022-10-01T14:42:56;15.80;99.90
59282;DHT22;45054;52.062;10.010;2022-10-01T14:45:21;15.70;99.90
59282;DHT22;45054;52.062;10.010;2022-10-01T14:47:46;15.30;99.90
59282;DHT22;45054;52.062;10.010;2022-10-01T14:50:19;14.50;99.90
59282;DHT22;45054;52.062;10.010;2022-10-01T14:52:47;13.40;99.90
59282;DHT22;45054;52.062;10.010;2022-10-01T14:55:14;12.60;99.90
59282;DHT22;45054;52.062;10.010;2022-10-01T14:57:42;11.90;99.90
59282;DHT22;45054;52.062;10.010;2022-10-01T15:00:12;11.60;99.90
59282;DHT22;45054;52.062;10.010;2022-10-01T15:02:42;11.40;99.90
59282;DHT22;45054;52.062;10.010;2022-10-01T15:05:13;11.30;99.90
59282;DHT22;45054;52.062;10.010;2022-10-01T15:07:39;11.30;99.90
59282;DHT22;45054;52.062;10.010;2022-10-01T15:10:05;11.20;99.90
59282;DHT22;45054;52.062;10.010;2022-10-01T15:12:32;11.20;99.90
59282;DHT22;45054;52.062;10.010;2022-10-01T15:15:03;11.20;99.90
59282;DHT22;45054;52.062;10.010;2022-10-01T15:17:28;11.10;99.90
59282;DHT22;45054;52.062;10.010;2022-10-01T15:19:54;11.10;99.90
59282;DHT22;45054;52.062;10.010;2022-10-01T15:22:21;11.10;99.90
59282;DHT22;45054;52.062;10.010;2022-10-01T15:24:47;11.10;99.90
59282;DHT22;45054;52.062;10.010;2022-10-01T15:27:13;11.10;99.90
59282;DHT22;45054;52.062;10.010;2022-10-01T15:29:41;11.10;99.90
59282;DHT22;45054;52.062;10.010;2022-10-01T15:32:07;11.10;99.90